createdAt,value
2023-03-08T00:02:04.286Z,2.66
2023-03-08T00:05:06.524Z,2.68
2023-03-08T00:08:08.077Z,2.66
2023-03-08T00:11:11.512Z,2.60
2023-03-08T00:14:13.033Z,2.51
2023-03-08T00:17:14.646Z,2.58
2023-03-08T00:20:16.135Z,2.55
2023-03-08T00:23:17.616Z,2.49
2023-03-08T00:26:19.091Z,2.39
2023-03-08T00:29:20.616Z,2.39
2023-03-08T00:32:22.191Z,2.33
2023-03-08T00:35:23.780Z,2.35
2023-03-08T00:38:25.374Z,2.34
2023-03-08T00:41:27.077Z,2.25
2023-03-08T00:44:28.557Z,2.19
2023-03-08T00:47:30.039Z,2.24
2023-03-08T00:50:31.780Z,2.17
2023-03-08T00:53:33.516Z,2.11
2023-03-08T00:56:35.017Z,2.03
2023-03-08T00:59:36.496Z,1.97
2023-03-08T01:02:41.216Z,2.02
2023-03-08T01:05:47.559Z,1.89
2023-03-08T01:08:49.058Z,1.67
2023-03-08T01:11:50.540Z,1.67
2023-03-08T01:14:52.765Z,1.56
2023-03-08T01:17:54.251Z,1.33
2023-03-08T01:20:59.863Z,1.15
2023-03-08T01:24:01.412Z,1.13
2023-03-08T01:27:02.926Z,1.27
2023-03-08T01:30:05.063Z,1.28
2023-03-08T01:33:06.564Z,1.39
2023-03-08T01:36:09.394Z,1.52
2023-03-08T01:39:10.897Z,1.69
2023-03-08T01:42:12.457Z,1.40
2023-03-08T01:45:51.603Z,1.34
2023-03-08T01:48:54.538Z,0.96
2023-03-08T01:52:06.898Z,0.53
2023-03-08T01:55:09.941Z,0.38
2023-03-08T01:58:11.538Z,0.25
2023-03-08T02:01:13.103Z,0.32
2023-03-08T02:04:14.591Z,0.27
2023-03-08T02:07:16.120Z,0.27
2023-03-08T02:10:17.616Z,0.33
2023-03-08T02:13:19.471Z,0.41
2023-03-08T02:16:21.063Z,0.32
2023-03-08T02:19:26.449Z,0.20
2023-03-08T02:22:27.952Z,0.23
2023-03-08T02:25:29.514Z,0.19
2023-03-08T02:28:31.063Z,0.21
2023-03-08T02:31:32.554Z,0.47
2023-03-08T02:34:34.559Z,0.56
2023-03-08T02:37:36.041Z,0.39
2023-03-08T02:40:38.158Z,0.45
2023-03-08T02:43:39.656Z,0.19
2023-03-08T02:46:41.137Z,0.10
2023-03-08T02:49:42.615Z,0.22
2023-03-08T02:52:44.102Z,0.29
2023-03-08T02:55:45.568Z,0.12
2023-03-08T02:58:47.038Z,0.01
2023-03-08T03:01:48.595Z,-0.03
2023-03-08T03:04:50.103Z,0.07
2023-03-08T03:07:51.852Z,0.14
2023-03-08T03:10:53.368Z,0.28
2023-03-08T03:13:56.526Z,0.31
2023-03-08T03:16:58.502Z,0.27
2023-03-08T03:20:00.095Z,0.39
2023-03-08T03:23:01.623Z,0.50
2023-03-08T03:26:10.873Z,0.61
2023-03-08T03:29:12.380Z,0.60
2023-03-08T03:32:13.966Z,0.45
2023-03-08T03:35:15.573Z,0.64
2023-03-08T03:38:18.003Z,0.53
2023-03-08T03:41:23.024Z,0.23
2023-03-08T03:44:24.534Z,0.28
2023-03-08T03:47:26.038Z,0.77
2023-03-08T03:50:27.537Z,0.87
2023-03-08T03:53:29.534Z,1.07
2023-03-08T03:56:31.002Z,1.44
2023-03-08T03:59:33.975Z,1.56
2023-03-08T04:02:35.536Z,1.84
2023-03-08T04:05:37.135Z,1.87
2023-03-08T04:08:44.483Z,1.92
2023-03-08T04:11:45.978Z,1.75
2023-03-08T04:14:47.510Z,1.65
2023-03-08T04:17:49.020Z,1.62
2023-03-08T04:20:50.540Z,2.18
2023-03-08T04:23:52.284Z,2.43
2023-03-08T04:26:53.821Z,2.42
2023-03-08T04:29:55.567Z,2.67
2023-03-08T04:32:57.073Z,2.52
2023-03-08T04:35:58.576Z,2.39
2023-03-08T04:39:00.142Z,2.65
2023-03-08T04:42:01.714Z,2.81
2023-03-08T04:45:03.489Z,2.90
2023-03-08T04:48:05.008Z,3.07
2023-03-08T04:51:07.323Z,3.05
2023-03-08T04:54:08.864Z,3.39
2023-03-08T04:57:10.351Z,3.22
2023-03-08T05:00:12.525Z,3.29
2023-03-08T05:03:14.105Z,3.27
2023-03-08T05:06:15.581Z,3.36
2023-03-08T05:09:17.062Z,3.37
2023-03-08T05:12:18.582Z,3.64
2023-03-08T05:15:20.118Z,3.76
2023-03-08T05:18:21.659Z,3.80
2023-03-08T05:21:24.273Z,3.82
2023-03-08T05:24:27.251Z,3.91
2023-03-08T05:27:32.607Z,3.85
2023-03-08T05:30:34.121Z,3.74
2023-03-08T05:33:35.705Z,3.69
2023-03-08T05:36:37.512Z,3.58
2023-03-08T05:39:39.010Z,3.48
2023-03-08T05:42:40.549Z,3.37
2023-03-08T05:45:42.242Z,3.17
2023-03-08T05:48:43.876Z,3.10
2023-03-08T05:51:45.378Z,2.91
2023-03-08T05:54:46.864Z,2.93
2023-03-08T05:57:48.363Z,2.68
2023-03-08T06:00:49.831Z,2.55
2023-03-08T06:03:53.194Z,2.47
2023-03-08T06:06:54.694Z,2.31
2023-03-08T06:09:56.337Z,2.31
2023-03-08T06:12:57.914Z,2.28
2023-03-08T06:16:00.037Z,2.31
2023-03-08T06:19:02.095Z,2.31
2023-03-08T06:22:03.638Z,2.50
2023-03-08T06:25:05.674Z,2.39
2023-03-08T06:28:07.140Z,2.36
2023-03-08T06:31:10.487Z,2.35
2023-03-08T06:34:12.687Z,2.34
2023-03-08T06:37:14.518Z,2.30
2023-03-08T06:40:16.432Z,2.37
2023-03-08T06:43:18.184Z,2.24
2023-03-08T06:46:20.299Z,2.29
2023-03-08T06:49:22.266Z,2.20
2023-03-08T06:52:23.765Z,2.28
2023-03-08T06:55:25.241Z,2.34
2023-03-08T06:58:26.775Z,2.27
2023-03-08T07:01:28.335Z,2.36
2023-03-08T07:04:29.920Z,2.40
2023-03-08T07:07:31.665Z,2.45
2023-03-08T07:10:33.214Z,2.47
2023-03-08T07:13:35.131Z,2.39
2023-03-08T07:16:36.672Z,2.37
2023-03-08T07:19:38.215Z,2.44
2023-03-08T07:22:41.986Z,2.43
2023-03-08T07:25:43.493Z,2.43
2023-03-08T07:28:48.368Z,2.49
2023-03-08T07:31:49.851Z,2.58
2023-03-08T07:34:51.355Z,2.55
2023-03-08T07:37:52.860Z,2.79
2023-03-08T07:40:56.060Z,2.83
2023-03-08T07:43:57.568Z,2.94
2023-03-08T07:46:59.067Z,2.97
2023-03-08T07:50:00.625Z,3.10
2023-03-08T07:53:02.216Z,3.19
2023-03-08T07:56:03.912Z,3.21
2023-03-08T07:59:05.384Z,3.29
2023-03-08T08:02:06.870Z,3.11
2023-03-08T08:05:08.618Z,3.18
2023-03-08T08:08:13.693Z,3.30
2023-03-08T08:11:16.377Z,3.32
2023-03-08T08:14:17.719Z,3.42
2023-03-08T08:17:19.957Z,3.46
2023-03-08T08:20:21.445Z,3.56
2023-03-08T08:23:22.927Z,3.55
2023-03-08T08:26:24.488Z,3.56
2023-03-08T08:29:25.964Z,3.62
2023-03-08T08:32:27.574Z,3.72
2023-03-08T08:35:42.457Z,3.83
2023-03-08T08:38:46.217Z,3.92
2023-03-08T08:41:49.644Z,3.97
2023-03-08T08:44:52.879Z,4.22
2023-03-08T08:47:54.346Z,4.29
2023-03-08T08:50:55.829Z,4.42
2023-03-08T08:53:57.335Z,4.56
2023-03-08T08:56:59.123Z,4.80
2023-03-08T09:00:00.621Z,4.71
2023-03-08T09:03:02.248Z,4.85
2023-03-08T09:06:03.848Z,4.91
2023-03-08T09:09:05.841Z,4.91
2023-03-08T09:12:07.771Z,4.98
2023-03-08T09:15:11.295Z,5.03
2023-03-08T09:18:12.791Z,4.99
2023-03-08T09:21:14.484Z,4.97
2023-03-08T09:24:17.061Z,5.25
2023-03-08T09:27:18.450Z,5.44
2023-03-08T09:30:19.953Z,5.40
2023-03-08T09:33:21.494Z,5.57
2023-03-08T09:36:22.978Z,5.70
2023-03-08T09:39:24.475Z,5.77
2023-03-08T09:42:27.660Z,5.70
2023-03-08T09:45:29.181Z,5.88
2023-03-08T09:48:30.795Z,5.83
2023-03-08T09:51:35.505Z,5.91
2023-03-08T09:54:38.361Z,6.02
2023-03-08T09:57:44.528Z,6.19
2023-03-08T10:00:46.810Z,6.20
2023-03-08T10:04:07.788Z,6.28
2023-03-08T10:07:30.915Z,6.26
2023-03-08T10:10:42.878Z,6.37
2023-03-08T10:13:48.274Z,6.56
2023-03-08T10:16:52.283Z,6.44
2023-03-08T10:20:01.650Z,6.77
2023-03-08T10:23:16.945Z,6.84
2023-03-08T10:26:19.273Z,6.94
2023-03-08T10:29:21.580Z,7.00
2023-03-08T10:32:23.296Z,7.03
2023-03-08T10:35:39.643Z,7.22
2023-03-08T10:38:41.186Z,7.51
2023-03-08T10:41:45.272Z,7.58
2023-03-08T10:45:01.620Z,7.60
2023-03-08T10:48:04.707Z,7.65
2023-03-08T10:51:07.243Z,7.71
2023-03-08T10:54:10.255Z,7.94
2023-03-08T10:57:11.978Z,7.82
2023-03-08T11:00:19.435Z,7.98
2023-03-08T11:03:22.022Z,8.04
2023-03-08T11:06:24.390Z,7.93
2023-03-08T11:09:30.367Z,8.04
2023-03-08T11:12:31.890Z,8.12
2023-03-08T11:15:33.516Z,8.36
2023-03-08T11:18:54.180Z,8.49
2023-03-08T11:22:07.819Z,8.23
2023-03-08T11:25:09.219Z,8.37
2023-03-08T11:28:37.104Z,8.12
2023-03-08T11:31:55.132Z,8.09
2023-03-08T11:35:03.983Z,8.08
2023-03-08T11:38:21.646Z,8.03
2023-03-08T11:41:38.087Z,8.17
2023-03-08T11:44:49.046Z,8.24
2023-03-08T11:47:56.511Z,8.38
2023-03-08T11:51:10.819Z,8.36
2023-03-08T11:54:43.208Z,8.29
2023-03-08T11:57:45.563Z,8.31
2023-03-08T12:00:47.248Z,8.51
2023-03-08T12:03:52.651Z,8.47
2023-03-08T12:06:54.977Z,8.48
2023-03-08T12:10:01.289Z,8.55
2023-03-08T12:13:12.510Z,8.71
2023-03-08T12:16:38.524Z,8.76
2023-03-08T12:19:44.727Z,8.78
2023-03-08T12:22:48.564Z,8.84
2023-03-08T12:25:53.310Z,8.89
2023-03-08T12:28:58.201Z,8.87
2023-03-08T12:31:59.798Z,8.87
2023-03-08T12:35:06.821Z,8.98
2023-03-08T12:38:17.417Z,8.87
2023-03-08T12:41:29.355Z,8.93
2023-03-08T12:44:31.047Z,8.97
2023-03-08T12:47:32.574Z,9.01
2023-03-08T12:50:45.234Z,9.07
2023-03-08T12:53:49.784Z,9.16
2023-03-08T12:56:52.358Z,9.18
2023-03-08T13:00:01.582Z,9.27
2023-03-08T13:03:13.180Z,9.24
2023-03-08T13:06:35.978Z,9.34
2023-03-08T13:09:44.743Z,9.34
2023-03-08T13:12:52.231Z,9.43
2023-03-08T13:16:24.600Z,9.49
2023-03-08T13:19:30.232Z,9.44
2023-03-08T13:22:54.644Z,9.43
2023-03-08T13:26:47.551Z,9.51
2023-03-08T13:29:51.164Z,9.59
2023-03-08T13:32:52.680Z,9.65
2023-03-08T13:36:27.217Z,9.80
2023-03-08T13:39:30.118Z,9.66
2023-03-08T13:42:31.663Z,9.74
2023-03-08T13:45:33.132Z,9.78
2023-03-08T13:48:35.427Z,9.65
2023-03-08T13:51:36.819Z,9.57
2023-03-08T13:54:41.519Z,9.38
2023-03-08T13:57:43.313Z,9.09
2023-03-08T14:00:45.715Z,9.09
2023-03-08T14:03:47.235Z,9.02
2023-03-08T14:06:50.425Z,9.09
2023-03-08T14:09:51.982Z,9.03
2023-03-08T14:12:53.877Z,9.31
2023-03-08T14:15:57.777Z,9.32
2023-03-08T14:19:00.527Z,9.39
2023-03-08T14:22:04.146Z,9.58
2023-03-08T14:25:06.315Z,9.43
2023-03-08T14:28:35.129Z,9.41
2023-03-08T14:31:39.016Z,9.66
2023-03-08T14:34:44.774Z,9.66
2023-03-08T14:37:46.978Z,9.85
2023-03-08T14:40:51.248Z,9.89
2023-03-08T14:43:52.749Z,9.92
2023-03-08T14:47:00.099Z,10.14
2023-03-08T14:50:18.285Z,9.92
2023-03-08T14:53:29.344Z,9.91
2023-03-08T14:56:30.855Z,9.89
2023-03-08T14:59:33.748Z,10.07
2023-03-08T15:02:36.208Z,10.05
2023-03-08T15:05:39.830Z,10.01
2023-03-08T15:08:41.333Z,10.08
2023-03-08T15:11:43.776Z,10.26
2023-03-08T15:14:45.382Z,10.06
2023-03-08T15:17:47.398Z,10.13
2023-03-08T15:20:49.447Z,10.16
2023-03-08T15:23:51.055Z,10.20
2023-03-08T15:26:52.769Z,10.11
2023-03-08T15:29:54.221Z,10.06
2023-03-08T15:32:57.939Z,9.99
2023-03-08T15:36:00.895Z,10.06
2023-03-08T15:39:04.531Z,10.00
2023-03-08T15:42:06.222Z,10.01
2023-03-08T15:45:08.561Z,9.98
2023-03-08T15:48:12.277Z,9.88
2023-03-08T15:51:19.306Z,9.66
2023-03-08T15:54:20.971Z,9.67
2023-03-08T15:57:22.452Z,9.73
2023-03-08T16:00:24.674Z,10.26
2023-03-08T16:03:30.802Z,10.30
2023-03-08T16:06:32.821Z,10.22
2023-03-08T16:09:34.789Z,10.44
2023-03-08T16:12:36.263Z,10.62
2023-03-08T16:15:40.848Z,10.71
2023-03-08T16:18:44.012Z,10.63
2023-03-08T16:21:45.497Z,10.41
2023-03-08T16:24:47.081Z,10.44
2023-03-08T16:27:48.722Z,10.37
2023-03-08T16:30:50.323Z,10.33
2023-03-08T16:33:51.843Z,10.32
2023-03-08T16:36:53.416Z,10.56
2023-03-08T16:39:55.211Z,10.77
2023-03-08T16:42:57.182Z,10.70
2023-03-08T16:45:59.859Z,10.78
2023-03-08T16:49:01.360Z,10.57
2023-03-08T16:52:03.015Z,10.37
2023-03-08T16:55:05.183Z,10.39
2023-03-08T16:58:06.701Z,10.35
2023-03-08T17:01:12.568Z,10.50
2023-03-08T17:04:14.349Z,10.42
2023-03-08T17:07:16.438Z,10.38
2023-03-08T17:10:17.926Z,10.31
2023-03-08T17:13:19.541Z,10.49
2023-03-08T17:16:23.238Z,10.41
2023-03-08T17:19:27.408Z,10.40
2023-03-08T17:22:28.894Z,10.45
2023-03-08T17:25:30.377Z,10.22
2023-03-08T17:28:32.028Z,10.30
2023-03-08T17:31:33.681Z,10.18
2023-03-08T17:34:35.282Z,10.16
2023-03-08T17:37:41.569Z,10.12
2023-03-08T17:40:44.208Z,9.92
2023-03-08T17:43:45.780Z,9.85
2023-03-08T17:46:47.337Z,9.91
2023-03-08T17:49:49.772Z,9.85
2023-03-08T17:52:51.285Z,9.71
2023-03-08T17:55:52.746Z,9.70
2023-03-08T17:58:54.994Z,9.61
2023-03-08T18:01:56.394Z,9.75
2023-03-08T18:04:57.871Z,9.77
2023-03-08T18:07:59.402Z,9.82
2023-03-08T18:11:00.964Z,9.80
2023-03-08T18:14:02.505Z,9.93
2023-03-08T18:17:04.565Z,9.80
2023-03-08T18:20:06.999Z,9.86
2023-03-08T18:23:08.480Z,9.80
2023-03-08T18:26:11.459Z,9.84
2023-03-08T18:29:13.093Z,9.85
2023-03-08T18:32:14.660Z,9.81
2023-03-08T18:35:19.246Z,9.69
2023-03-08T18:38:20.782Z,9.76
2023-03-08T18:41:25.484Z,9.79
2023-03-08T18:44:27.161Z,9.76
2023-03-08T18:47:28.685Z,9.67
2023-03-08T18:50:30.183Z,9.59
2023-03-08T18:53:31.754Z,9.63
2023-03-08T18:56:33.243Z,9.49
2023-03-08T18:59:35.062Z,9.51
2023-03-08T19:02:36.656Z,9.71
2023-03-08T19:05:38.140Z,9.84
2023-03-08T19:08:39.937Z,9.81
2023-03-08T19:11:41.884Z,9.83
2023-03-08T19:14:43.617Z,9.67
2023-03-08T19:17:45.400Z,9.97
2023-03-08T19:20:46.917Z,9.96
2023-03-08T19:23:48.626Z,9.78
2023-03-08T19:26:51.392Z,9.77
2023-03-08T19:29:53.013Z,9.77
2023-03-08T19:32:55.694Z,9.78
2023-03-08T19:35:57.310Z,9.82
2023-03-08T19:38:59.028Z,9.84
2023-03-08T19:42:05.788Z,9.67
2023-03-08T19:45:07.980Z,9.90
2023-03-08T19:48:09.461Z,9.89
2023-03-08T19:51:15.197Z,9.98
2023-03-08T19:54:17.157Z,9.96
2023-03-08T19:57:18.734Z,9.95
2023-03-08T20:00:20.511Z,10.08
2023-03-08T20:03:22.016Z,10.13
2023-03-08T20:06:34.427Z,10.03
2023-03-08T20:09:35.999Z,10.00
2023-03-08T20:12:37.485Z,9.97
2023-03-08T20:15:39.023Z,9.76
2023-03-08T20:18:40.632Z,9.99
2023-03-08T20:21:42.147Z,10.07
2023-03-08T20:24:43.627Z,10.10
2023-03-08T20:27:45.136Z,10.15
2023-03-08T20:30:47.837Z,10.22
2023-03-08T20:33:51.743Z,10.02
2023-03-08T20:36:53.218Z,10.01
2023-03-08T20:39:54.793Z,9.93
2023-03-08T20:42:57.830Z,9.71
2023-03-08T20:46:01.581Z,9.78
2023-03-08T20:49:03.135Z,9.90
2023-03-08T20:52:04.757Z,9.97
2023-03-08T20:55:06.452Z,9.91
2023-03-08T20:58:08.017Z,9.88
2023-03-08T21:01:16.596Z,9.93
2023-03-08T21:04:18.091Z,9.75
2023-03-08T21:07:19.649Z,9.78
2023-03-08T21:10:21.340Z,9.70
2023-03-08T21:13:22.854Z,9.67
2023-03-08T21:16:24.924Z,9.97
2023-03-08T21:19:26.458Z,10.02
2023-03-08T21:22:28.064Z,9.97
2023-03-08T21:25:29.692Z,9.87
2023-03-08T21:28:31.200Z,9.83
2023-03-08T21:31:33.949Z,9.93
2023-03-08T21:34:35.425Z,10.03
2023-03-08T21:37:36.892Z,9.84
2023-03-08T21:40:39.292Z,9.99
2023-03-08T21:43:40.786Z,10.19
2023-03-08T21:46:42.468Z,10.11
2023-03-08T21:49:43.977Z,9.97
2023-03-08T21:52:45.442Z,9.96
2023-03-08T21:55:46.926Z,9.78
2023-03-08T21:58:48.404Z,9.92
2023-03-08T22:01:51.025Z,10.06
2023-03-08T22:04:52.545Z,10.02
2023-03-08T22:07:54.081Z,9.93
2023-03-08T22:10:55.629Z,9.98
2023-03-08T22:13:58.710Z,10.01
2023-03-08T22:17:00.642Z,9.97
2023-03-08T22:20:02.152Z,9.92
2023-03-08T22:23:03.658Z,9.80
2023-03-08T22:26:08.769Z,9.61
2023-03-08T22:29:10.295Z,9.47
2023-03-08T22:32:11.850Z,9.42
2023-03-08T22:35:13.334Z,9.46
2023-03-08T22:38:14.807Z,9.56
2023-03-08T22:41:24.485Z,9.65
2023-03-08T22:44:26.097Z,9.61
2023-03-08T22:47:27.615Z,9.54
2023-03-08T22:50:29.159Z,9.53
2023-03-08T22:53:30.690Z,9.37
2023-03-08T22:56:33.328Z,9.39
2023-03-08T22:59:34.790Z,9.37
2023-03-08T23:02:36.290Z,9.33
2023-03-08T23:05:37.821Z,9.28
2023-03-08T23:08:39.430Z,9.44
2023-03-08T23:11:41.156Z,9.48
2023-03-08T23:14:44.971Z,9.58
2023-03-08T23:17:46.745Z,9.69
2023-03-08T23:20:48.241Z,9.79
2023-03-08T23:23:49.951Z,9.85
2023-03-08T23:26:51.517Z,9.84
2023-03-08T23:29:53.113Z,9.97
2023-03-08T23:32:54.611Z,10.04
2023-03-08T23:35:56.214Z,9.98
2023-03-08T23:38:58.007Z,9.93
2023-03-08T23:41:59.922Z,9.94
2023-03-08T23:45:01.406Z,9.88
2023-03-08T23:48:03.479Z,9.73
2023-03-08T23:51:05.502Z,9.68
2023-03-08T23:54:07.070Z,9.50
2023-03-08T23:57:08.611Z,9.53
